sensor_id;sensor_type;location;lat;lon;timestamp;P1;durP1;ratioP1;P2;durP2;ratioP2
66327;SDS011;53133;52.862;6.602;2023-01-31T00:01:13;28.13;;;7.15;;
66327;SDS011;53133;52.862;6.602;2023-01-31T00:03:42;23.05;;;4.57;;
66327;SDS011;53133;52.862;6.602;2023-01-31T00:06:09;18.20;;;3.65;;
66327;SDS011;53133;52.862;6.602;2023-01-31T00:08:35;20.23;;;2.80;;
66327;SDS011;53133;52.862;6.602;2023-01-31T00:11:00;19.95;;;2.90;;
66327;SDS011;53133;52.862;6.602;2023-01-31T00:13:26;21.20;;;3.28;;
66327;SDS011;53133;52.862;6.602;2023-01-31T00:15:54;17.75;;;3.92;;
66327;SDS011;53133;52.862;6.602;2023-01-31T00:18:20;25.52;;;3.58;;
66327;SDS011;53133;52.862;6.602;2023-01-31T00:20:46;18.77;;;3.45;;
66327;SDS011;53133;52.862;6.602;2023-01-31T00:23:12;15.57;;;2.58;;
66327;SDS011;53133;52.862;6.602;2023-01-31T00:25:37;14.55;;;2.67;;
66327;SDS011;53133;52.862;6.602;2023-01-31T00:28:03;29.58;;;4.07;;
66327;SDS011;53133;52.862;6.602;2023-01-31T00:30:29;16.83;;;2.83;;
66327;SDS011;53133;52.862;6.602;2023-01-31T00:32:55;17.70;;;3.28;;
66327;SDS011;53133;52.862;6.602;2023-01-31T00:35:20;16.38;;;3.05;;
66327;SDS011;53133;52.862;6.602;2023-01-31T00:37:46;20.20;;;3.20;;
66327;SDS011;53133;52.862;6.602;2023-01-31T00:40:12;19.23;;;3.03;;
66327;SDS011;53133;52.862;6.602;2023-01-31T00:42:37;19.40;;;3.50;;
66327;SDS011;53133;52.862;6.602;2023-01-31T00:45:03;14.48;;;2.72;;
66327;SDS011;53133;52.862;6.602;2023-01-31T00:47:29;17.88;;;2.63;;
66327;SDS011;53133;52.862;6.602;2023-01-31T00:49:55;20.08;;;3.03;;
66327;SDS011;53133;52.862;6.602;2023-01-31T00:52:20;23.50;;;3.28;;
66327;SDS011;53133;52.862;6.602;2023-01-31T00:54:46;21.55;;;3.58;;
66327;SDS011;53133;52.862;6.602;2023-01-31T00:57:11;17.98;;;2.83;;
66327;SDS011;53133;52.862;6.602;2023-01-31T00:59:37;18.77;;;3.38;;
66327;SDS011;53133;52.862;6.602;2023-01-31T01:02:02;19.80;;;3.08;;
66327;SDS011;53133;52.862;6.602;2023-01-31T01:04:28;22.83;;;2.80;;
66327;SDS011;53133;52.862;6.602;2023-01-31T01:06:54;15.18;;;2.08;;
66327;SDS011;53133;52.862;6.602;2023-01-31T01:09:19;16.33;;;2.58;;
66327;SDS011;53133;52.862;6.602;2023-01-31T01:11:46;15.80;;;2.70;;
66327;SDS011;53133;52.862;6.602;2023-01-31T01:14:13;20.60;;;2.70;;
66327;SDS011;53133;52.862;6.602;2023-01-31T01:16:38;14.55;;;2.30;;
66327;SDS011;53133;52.862;6.602;2023-01-31T01:19:05;17.90;;;2.53;;
66327;SDS011;53133;52.862;6.602;2023-01-31T01:21:34;17.50;;;2.65;;
66327;SDS011;53133;52.862;6.602;2023-01-31T01:24:04;14.18;;;2.25;;
66327;SDS011;53133;52.862;6.602;2023-01-31T01:26:32;15.40;;;2.45;;
66327;SDS011;53133;52.862;6.602;2023-01-31T01:28:59;14.45;;;2.55;;
66327;SDS011;53133;52.862;6.602;2023-01-31T01:31:26;20.77;;;3.38;;
66327;SDS011;53133;52.862;6.602;2023-01-31T01:33:56;18.70;;;2.40;;
66327;SDS011;53133;52.862;6.602;2023-01-31T01:36:23;22.02;;;2.30;;
66327;SDS011;53133;52.862;6.602;2023-01-31T01:38:50;20.67;;;2.78;;
66327;SDS011;53133;52.862;6.602;2023-01-31T01:41:19;11.30;;;2.28;;
66327;SDS011;53133;52.862;6.602;2023-01-31T01:43:52;15.57;;;2.80;;
66327;SDS011;53133;52.862;6.602;2023-01-31T01:46:27;15.10;;;2.47;;
66327;SDS011;53133;52.862;6.602;2023-01-31T01:49:05;19.67;;;2.50;;
66327;SDS011;53133;52.862;6.602;2023-01-31T01:51:43;17.30;;;2.30;;
66327;SDS011;53133;52.862;6.602;2023-01-31T01:54:12;14.70;;;2.33;;
66327;SDS011;53133;52.862;6.602;2023-01-31T01:56:42;16.10;;;2.53;;
66327;SDS011;53133;52.862;6.602;2023-01-31T01:59:15;14.52;;;1.98;;
66327;SDS011;53133;52.862;6.602;2023-01-31T02:02:05;13.75;;;2.10;;
66327;SDS011;53133;52.862;6.602;2023-01-31T02:04:33;11.38;;;2.50;;
66327;SDS011;53133;52.862;6.602;2023-01-31T02:07:01;14.32;;;2.60;;
66327;SDS011;53133;52.862;6.602;2023-01-31T02:12:14;18.13;;;2.30;;
66327;SDS011;53133;52.862;6.602;2023-01-31T02:14:41;17.20;;;2.38;;
66327;SDS011;53133;52.862;6.602;2023-01-31T02:17:12;19.23;;;2.45;;
66327;SDS011;53133;52.862;6.602;2023-01-31T02:22:36;19.88;;;2.30;;
66327;SDS011;53133;52.862;6.602;2023-01-31T02:30:56;19.25;;;2.42;;
66327;SDS011;53133;52.862;6.602;2023-01-31T02:33:43;14.65;;;2.33;;
66327;SDS011;53133;52.862;6.602;2023-01-31T02:39:00;16.63;;;3.08;;
66327;SDS011;53133;52.862;6.602;2023-01-31T02:42:04;14.02;;;2.03;;
66327;SDS011;53133;52.862;6.602;2023-01-31T02:44:49;15.98;;;2.70;;
66327;SDS011;53133;52.862;6.602;2023-01-31T02:50:23;13.27;;;3.03;;
66327;SDS011;53133;52.862;6.602;2023-01-31T02:55:35;14.48;;;1.83;;
66327;SDS011;53133;52.862;6.602;2023-01-31T02:58:36;15.77;;;2.67;;
66327;SDS011;53133;52.862;6.602;2023-01-31T03:01:04;14.35;;;2.25;;
66327;SDS011;53133;52.862;6.602;2023-01-31T03:03:36;21.83;;;3.00;;
66327;SDS011;53133;52.862;6.602;2023-01-31T03:08:35;19.50;;;2.22;;
66327;SDS011;53133;52.862;6.602;2023-01-31T03:11:03;11.30;;;2.40;;
66327;SDS011;53133;52.862;6.602;2023-01-31T03:13:47;17.27;;;2.03;;
66327;SDS011;53133;52.862;6.602;2023-01-31T03:16:24;15.05;;;2.55;;
66327;SDS011;53133;52.862;6.602;2023-01-31T03:19:26;12.85;;;2.00;;
66327;SDS011;53133;52.862;6.602;2023-01-31T03:22:09;13.38;;;2.45;;
66327;SDS011;53133;52.862;6.602;2023-01-31T03:24:41;15.60;;;2.30;;
66327;SDS011;53133;52.862;6.602;2023-01-31T03:27:11;16.27;;;2.55;;
66327;SDS011;53133;52.862;6.602;2023-01-31T03:29:37;13.43;;;2.53;;
66327;SDS011;53133;52.862;6.602;2023-01-31T03:32:05;16.35;;;2.45;;
66327;SDS011;53133;52.862;6.602;2023-01-31T03:34:34;12.70;;;2.72;;
66327;SDS011;53133;52.862;6.602;2023-01-31T03:37:18;17.77;;;2.80;;
66327;SDS011;53133;52.862;6.602;2023-01-31T03:45:22;10.65;;;2.30;;
66327;SDS011;53133;52.862;6.602;2023-01-31T03:47:54;16.65;;;3.03;;
66327;SDS011;53133;52.862;6.602;2023-01-31T03:50:34;19.58;;;2.78;;
66327;SDS011;53133;52.862;6.602;2023-01-31T03:53:06;13.80;;;2.08;;
66327;SDS011;53133;52.862;6.602;2023-01-31T03:55:42;18.83;;;2.65;;
66327;SDS011;53133;52.862;6.602;2023-01-31T03:58:15;17.45;;;3.00;;
66327;SDS011;53133;52.862;6.602;2023-01-31T04:00:44;14.60;;;2.30;;
66327;SDS011;53133;52.862;6.602;2023-01-31T04:03:14;15.73;;;2.80;;
66327;SDS011;53133;52.862;6.602;2023-01-31T04:05:48;13.20;;;2.65;;
66327;SDS011;53133;52.862;6.602;2023-01-31T04:08:15;19.25;;;3.08;;
66327;SDS011;53133;52.862;6.602;2023-01-31T04:10:41;19.42;;;2.97;;
66327;SDS011;53133;52.862;6.602;2023-01-31T04:13:07;11.15;;;2.78;;
66327;SDS011;53133;52.862;6.602;2023-01-31T04:15:32;14.60;;;2.70;;
66327;SDS011;53133;52.862;6.602;2023-01-31T04:17:58;20.48;;;2.97;;
66327;SDS011;53133;52.862;6.602;2023-01-31T04:20:24;19.55;;;3.00;;
66327;SDS011;53133;52.862;6.602;2023-01-31T04:22:50;14.77;;;4.00;;
66327;SDS011;53133;52.862;6.602;2023-01-31T04:25:15;21.17;;;4.68;;
66327;SDS011;53133;52.862;6.602;2023-01-31T04:27:41;16.23;;;3.17;;
66327;SDS011;53133;52.862;6.602;2023-01-31T04:30:07;29.20;;;6.82;;
66327;SDS011;53133;52.862;6.602;2023-01-31T04:32:33;15.70;;;2.88;;
66327;SDS011;53133;52.862;6.602;2023-01-31T04:34:59;18.52;;;3.78;;
66327;SDS011;53133;52.862;6.602;2023-01-31T04:37:25;20.65;;;3.22;;
66327;SDS011;53133;52.862;6.602;2023-01-31T04:39:50;19.45;;;3.50;;
66327;SDS011;53133;52.862;6.602;2023-01-31T04:42:16;17.90;;;3.45;;
66327;SDS011;53133;52.862;6.602;2023-01-31T04:44:42;14.73;;;3.10;;
66327;SDS011;53133;52.862;6.602;2023-01-31T04:47:07;17.33;;;3.15;;
66327;SDS011;53133;52.862;6.602;2023-01-31T04:49:33;17.13;;;3.85;;
66327;SDS011;53133;52.862;6.602;2023-01-31T04:51:58;20.15;;;3.28;;
66327;SDS011;53133;52.862;6.602;2023-01-31T04:54:24;17.73;;;3.78;;
66327;SDS011;53133;52.862;6.602;2023-01-31T04:56:49;21.23;;;3.60;;
66327;SDS011;53133;52.862;6.602;2023-01-31T04:59:15;22.77;;;3.60;;
66327;SDS011;53133;52.862;6.602;2023-01-31T05:01:40;19.77;;;4.05;;
66327;SDS011;53133;52.862;6.602;2023-01-31T05:04:06;19.42;;;3.40;;
66327;SDS011;53133;52.862;6.602;2023-01-31T05:06:32;19.10;;;3.25;;
66327;SDS011;53133;52.862;6.602;2023-01-31T05:08:58;19.63;;;3.95;;
66327;SDS011;53133;52.862;6.602;2023-01-31T05:11:25;19.13;;;3.97;;
66327;SDS011;53133;52.862;6.602;2023-01-31T05:13:51;16.63;;;4.05;;
66327;SDS011;53133;52.862;6.602;2023-01-31T05:16:17;23.77;;;3.88;;
66327;SDS011;53133;52.862;6.602;2023-01-31T05:18:45;23.90;;;4.25;;
66327;SDS011;53133;52.862;6.602;2023-01-31T05:21:11;23.83;;;3.95;;
66327;SDS011;53133;52.862;6.602;2023-01-31T05:23:36;14.48;;;3.25;;
66327;SDS011;53133;52.862;6.602;2023-01-31T05:26:11;14.10;;;3.78;;
66327;SDS011;53133;52.862;6.602;2023-01-31T05:28:37;18.27;;;3.42;;
66327;SDS011;53133;52.862;6.602;2023-01-31T05:31:03;21.77;;;4.10;;
66327;SDS011;53133;52.862;6.602;2023-01-31T05:33:30;24.95;;;4.30;;
66327;SDS011;53133;52.862;6.602;2023-01-31T05:35:57;22.58;;;4.63;;
66327;SDS011;53133;52.862;6.602;2023-01-31T05:38:23;20.05;;;4.00;;
66327;SDS011;53133;52.862;6.602;2023-01-31T05:40:49;20.63;;;4.25;;
66327;SDS011;53133;52.862;6.602;2023-01-31T05:43:15;15.80;;;4.40;;
66327;SDS011;53133;52.862;6.602;2023-01-31T05:45:40;20.73;;;4.47;;
66327;SDS011;53133;52.862;6.602;2023-01-31T05:48:06;23.95;;;4.25;;
66327;SDS011;53133;52.862;6.602;2023-01-31T05:50:31;22.60;;;4.45;;
66327;SDS011;53133;52.862;6.602;2023-01-31T05:52:58;23.42;;;4.97;;
66327;SDS011;53133;52.862;6.602;2023-01-31T05:55:24;21.90;;;4.63;;
66327;SDS011;53133;52.862;6.602;2023-01-31T05:57:51;33.92;;;6.32;;
66327;SDS011;53133;52.862;6.602;2023-01-31T06:00:18;26.75;;;5.03;;
66327;SDS011;53133;52.862;6.602;2023-01-31T06:02:44;21.63;;;5.18;;
66327;SDS011;53133;52.862;6.602;2023-01-31T06:05:12;17.48;;;5.28;;
66327;SDS011;53133;52.862;6.602;2023-01-31T06:07:38;20.25;;;5.30;;
66327;SDS011;53133;52.862;6.602;2023-01-31T06:10:04;22.55;;;4.75;;
66327;SDS011;53133;52.862;6.602;2023-01-31T06:12:31;27.83;;;5.97;;
66327;SDS011;53133;52.862;6.602;2023-01-31T06:14:57;26.83;;;6.80;;
66327;SDS011;53133;52.862;6.602;2023-01-31T06:17:23;19.70;;;4.80;;
66327;SDS011;53133;52.862;6.602;2023-01-31T06:19:49;28.55;;;6.20;;
66327;SDS011;53133;52.862;6.602;2023-01-31T06:22:15;28.77;;;6.28;;
66327;SDS011;53133;52.862;6.602;2023-01-31T06:24:41;27.73;;;6.07;;
66327;SDS011;53133;52.862;6.602;2023-01-31T06:27:07;23.63;;;6.00;;
66327;SDS011;53133;52.862;6.602;2023-01-31T06:29:32;23.70;;;5.95;;
66327;SDS011;53133;52.862;6.602;2023-01-31T06:31:58;25.80;;;6.00;;
66327;SDS011;53133;52.862;6.602;2023-01-31T06:34:23;28.25;;;6.65;;
66327;SDS011;53133;52.862;6.602;2023-01-31T06:36:49;23.70;;;6.05;;
66327;SDS011;53133;52.862;6.602;2023-01-31T06:39:15;28.20;;;6.13;;
66327;SDS011;53133;52.862;6.602;2023-01-31T06:41:41;23.75;;;6.30;;
66327;SDS011;53133;52.862;6.602;2023-01-31T06:44:06;22.77;;;7.22;;
66327;SDS011;53133;52.862;6.602;2023-01-31T06:46:32;25.58;;;6.78;;
66327;SDS011;53133;52.862;6.602;2023-01-31T06:48:58;29.30;;;6.38;;
66327;SDS011;53133;52.862;6.602;2023-01-31T06:51:23;34.88;;;7.05;;
66327;SDS011;53133;52.862;6.602;2023-01-31T06:53:49;32.95;;;6.38;;
66327;SDS011;53133;52.862;6.602;2023-01-31T06:56:20;28.27;;;6.83;;
66327;SDS011;53133;52.862;6.602;2023-01-31T06:58:46;29.85;;;6.60;;
66327;SDS011;53133;52.862;6.602;2023-01-31T07:01:12;26.63;;;6.07;;
66327;SDS011;53133;52.862;6.602;2023-01-31T07:03:38;32.58;;;6.47;;
66327;SDS011;53133;52.862;6.602;2023-01-31T07:06:04;32.88;;;7.35;;
66327;SDS011;53133;52.862;6.602;2023-01-31T07:08:30;30.45;;;6.70;;
66327;SDS011;53133;52.862;6.602;2023-01-31T07:10:56;24.90;;;6.20;;
66327;SDS011;53133;52.862;6.602;2023-01-31T07:13:25;27.67;;;6.30;;
66327;SDS011;53133;52.862;6.602;2023-01-31T07:15:51;31.65;;;6.85;;
66327;SDS011;53133;52.862;6.602;2023-01-31T07:18:17;28.95;;;6.75;;
66327;SDS011;53133;52.862;6.602;2023-01-31T07:20:42;30.95;;;6.13;;
66327;SDS011;53133;52.862;6.602;2023-01-31T07:23:08;23.40;;;5.93;;
66327;SDS011;53133;52.862;6.602;2023-01-31T07:25:34;23.20;;;6.20;;
66327;SDS011;53133;52.862;6.602;2023-01-31T07:28:00;31.75;;;5.97;;
66327;SDS011;53133;52.862;6.602;2023-01-31T07:30:26;25.40;;;5.43;;
66327;SDS011;53133;52.862;6.602;2023-01-31T07:32:52;26.10;;;5.72;;
66327;SDS011;53133;52.862;6.602;2023-01-31T07:35:19;20.95;;;4.78;;
66327;SDS011;53133;52.862;6.602;2023-01-31T07:37:45;23.73;;;5.05;;
66327;SDS011;53133;52.862;6.602;2023-01-31T07:40:11;23.77;;;4.95;;
66327;SDS011;53133;52.862;6.602;2023-01-31T07:42:39;21.23;;;4.90;;
66327;SDS011;53133;52.862;6.602;2023-01-31T07:45:05;24.25;;;4.82;;
66327;SDS011;53133;52.862;6.602;2023-01-31T07:47:33;23.60;;;5.20;;
66327;SDS011;53133;52.862;6.602;2023-01-31T07:49:59;24.00;;;5.05;;
66327;SDS011;53133;52.862;6.602;2023-01-31T07:52:24;22.83;;;4.95;;
66327;SDS011;53133;52.862;6.602;2023-01-31T07:54:50;20.30;;;4.95;;
66327;SDS011;53133;52.862;6.602;2023-01-31T07:57:15;23.45;;;4.68;;
66327;SDS011;53133;52.862;6.602;2023-01-31T07:59:42;23.55;;;5.18;;
66327;SDS011;53133;52.862;6.602;2023-01-31T08:02:12;17.77;;;5.10;;
66327;SDS011;53133;52.862;6.602;2023-01-31T08:04:57;18.70;;;4.10;;
66327;SDS011;53133;52.862;6.602;2023-01-31T08:07:23;24.95;;;5.85;;
66327;SDS011;53133;52.862;6.602;2023-01-31T08:09:49;23.42;;;4.80;;
66327;SDS011;53133;52.862;6.602;2023-01-31T08:12:15;18.38;;;3.90;;
66327;SDS011;53133;52.862;6.602;2023-01-31T08:14:41;19.60;;;4.00;;
66327;SDS011;53133;52.862;6.602;2023-01-31T08:17:07;21.85;;;4.50;;
66327;SDS011;53133;52.862;6.602;2023-01-31T08:19:33;17.08;;;4.55;;
66327;SDS011;53133;52.862;6.602;2023-01-31T08:21:59;18.55;;;4.25;;
66327;SDS011;53133;52.862;6.602;2023-01-31T08:24:25;15.55;;;3.63;;
66327;SDS011;53133;52.862;6.602;2023-01-31T08:26:51;23.70;;;4.78;;
66327;SDS011;53133;52.862;6.602;2023-01-31T08:29:17;17.02;;;3.97;;
66327;SDS011;53133;52.862;6.602;2023-01-31T08:31:42;17.75;;;3.97;;
66327;SDS011;53133;52.862;6.602;2023-01-31T08:34:08;19.23;;;4.15;;
66327;SDS011;53133;52.862;6.602;2023-01-31T08:36:34;19.00;;;4.85;;
66327;SDS011;53133;52.862;6.602;2023-01-31T08:39:00;24.75;;;4.70;;
66327;SDS011;53133;52.862;6.602;2023-01-31T08:41:27;15.43;;;4.50;;
66327;SDS011;53133;52.862;6.602;2023-01-31T08:43:53;20.17;;;4.05;;
66327;SDS011;53133;52.862;6.602;2023-01-31T08:46:22;14.43;;;4.68;;
66327;SDS011;53133;52.862;6.602;2023-01-31T08:48:54;20.25;;;4.65;;
66327;SDS011;53133;52.862;6.602;2023-01-31T08:51:19;18.95;;;4.10;;
66327;SDS011;53133;52.862;6.602;2023-01-31T08:53:46;17.38;;;4.18;;
66327;SDS011;53133;52.862;6.602;2023-01-31T08:56:12;16.50;;;3.90;;
66327;SDS011;53133;52.862;6.602;2023-01-31T08:58:39;16.02;;;4.07;;
66327;SDS011;53133;52.862;6.602;2023-01-31T09:01:07;12.05;;;3.28;;
66327;SDS011;53133;52.862;6.602;2023-01-31T09:03:38;22.05;;;5.07;;
66327;SDS011;53133;52.862;6.602;2023-01-31T09:06:05;17.10;;;3.70;;
66327;SDS011;53133;52.862;6.602;2023-01-31T09:08:33;20.98;;;3.72;;
66327;SDS011;53133;52.862;6.602;2023-01-31T09:10:59;16.75;;;4.82;;
66327;SDS011;53133;52.862;6.602;2023-01-31T09:13:25;16.30;;;3.67;;
66327;SDS011;53133;52.862;6.602;2023-01-31T09:16:01;20.70;;;4.20;;
66327;SDS011;53133;52.862;6.602;2023-01-31T09:18:29;17.05;;;4.28;;
66327;SDS011;53133;52.862;6.602;2023-01-31T09:20:54;20.50;;;4.28;;
66327;SDS011;53133;52.862;6.602;2023-01-31T09:23:20;15.07;;;3.80;;
66327;SDS011;53133;52.862;6.602;2023-01-31T09:25:53;18.05;;;4.38;;
66327;SDS011;53133;52.862;6.602;2023-01-31T09:28:19;18.15;;;3.47;;
66327;SDS011;53133;52.862;6.602;2023-01-31T09:30:46;15.70;;;4.00;;
66327;SDS011;53133;52.862;6.602;2023-01-31T09:33:12;13.57;;;3.17;;
66327;SDS011;53133;52.862;6.602;2023-01-31T09:35:37;15.65;;;4.40;;
66327;SDS011;53133;52.862;6.602;2023-01-31T09:38:03;20.67;;;3.55;;
66327;SDS011;53133;52.862;6.602;2023-01-31T09:40:30;19.08;;;3.72;;
66327;SDS011;53133;52.862;6.602;2023-01-31T09:42:57;20.02;;;3.80;;
66327;SDS011;53133;52.862;6.602;2023-01-31T09:48:00;17.15;;;3.33;;
66327;SDS011;53133;52.862;6.602;2023-01-31T09:50:36;16.85;;;3.47;;
66327;SDS011;53133;52.862;6.602;2023-01-31T09:53:09;16.42;;;3.38;;
66327;SDS011;53133;52.862;6.602;2023-01-31T09:55:54;18.55;;;3.47;;
66327;SDS011;53133;52.862;6.602;2023-01-31T10:01:09;14.82;;;3.45;;
66327;SDS011;53133;52.862;6.602;2023-01-31T10:03:58;20.38;;;3.58;;
66327;SDS011;53133;52.862;6.602;2023-01-31T10:06:32;22.38;;;3.75;;
66327;SDS011;53133;52.862;6.602;2023-01-31T10:09:50;20.20;;;3.80;;
66327;SDS011;53133;52.862;6.602;2023-01-31T10:12:02;19.55;;;4.07;;
66327;SDS011;53133;52.862;6.602;2023-01-31T10:14:35;15.18;;;3.75;;
66327;SDS011;53133;52.862;6.602;2023-01-31T10:17:16;19.75;;;4.03;;
66327;SDS011;53133;52.862;6.602;2023-01-31T10:22:38;17.65;;;3.88;;
66327;SDS011;53133;52.862;6.602;2023-01-31T10:27:55;21.73;;;4.38;;
66327;SDS011;53133;52.862;6.602;2023-01-31T10:30:30;19.90;;;4.40;;
66327;SDS011;53133;52.862;6.602;2023-01-31T10:33:25;20.05;;;4.05;;
66327;SDS011;53133;52.862;6.602;2023-01-31T10:35:53;16.50;;;3.92;;
66327;SDS011;53133;52.862;6.602;2023-01-31T10:40:57;17.67;;;3.95;;
66327;SDS011;53133;52.862;6.602;2023-01-31T10:43:55;22.83;;;5.00;;
66327;SDS011;53133;52.862;6.602;2023-01-31T10:46:23;17.77;;;4.40;;
66327;SDS011;53133;52.862;6.602;2023-01-31T10:48:49;15.82;;;4.72;;
66327;SDS011;53133;52.862;6.602;2023-01-31T10:51:19;17.85;;;4.88;;
66327;SDS011;53133;52.862;6.602;2023-01-31T10:56:47;18.70;;;5.18;;
66327;SDS011;53133;52.862;6.602;2023-01-31T10:59:24;18.75;;;4.28;;
66327;SDS011;53133;52.862;6.602;2023-01-31T11:01:55;23.58;;;5.03;;
66327;SDS011;53133;52.862;6.602;2023-01-31T11:04:25;22.15;;;5.03;;
66327;SDS011;53133;52.862;6.602;2023-01-31T11:06:59;19.73;;;5.13;;
66327;SDS011;53133;52.862;6.602;2023-01-31T11:09:26;21.58;;;5.13;;
66327;SDS011;53133;52.862;6.602;2023-01-31T11:12:00;18.25;;;4.90;;
66327;SDS011;53133;52.862;6.602;2023-01-31T11:19:33;16.25;;;5.00;;
66327;SDS011;53133;52.862;6.602;2023-01-31T11:22:03;23.55;;;5.07;;
66327;SDS011;53133;52.862;6.602;2023-01-31T11:24:31;17.98;;;4.72;;
66327;SDS011;53133;52.862;6.602;2023-01-31T11:29:35;23.65;;;4.30;;
66327;SDS011;53133;52.862;6.602;2023-01-31T11:32:04;20.33;;;4.82;;
66327;SDS011;53133;52.862;6.602;2023-01-31T11:34:53;17.15;;;3.90;;
66327;SDS011;53133;52.862;6.602;2023-01-31T11:37:20;21.45;;;5.13;;
66327;SDS011;53133;52.862;6.602;2023-01-31T11:39:56;19.08;;;4.57;;
66327;SDS011;53133;52.862;6.602;2023-01-31T11:42:24;23.63;;;4.03;;
66327;SDS011;53133;52.862;6.602;2023-01-31T11:44:53;23.63;;;4.20;;
66327;SDS011;53133;52.862;6.602;2023-01-31T11:47:23;21.85;;;4.00;;
66327;SDS011;53133;52.862;6.602;2023-01-31T11:49:52;24.83;;;4.57;;
66327;SDS011;53133;52.862;6.602;2023-01-31T11:52:22;25.70;;;5.10;;
66327;SDS011;53133;52.862;6.602;2023-01-31T11:54:58;19.27;;;4.55;;
66327;SDS011;53133;52.862;6.602;2023-01-31T11:57:33;24.60;;;4.90;;
66327;SDS011;53133;52.862;6.602;2023-01-31T12:00:02;24.90;;;4.60;;
66327;SDS011;53133;52.862;6.602;2023-01-31T12:05:12;17.33;;;4.60;;
66327;SDS011;53133;52.862;6.602;2023-01-31T12:13:12;16.77;;;4.25;;
66327;SDS011;53133;52.862;6.602;2023-01-31T12:37:33;14.05;;;3.72;;
66327;SDS011;53133;52.862;6.602;2023-01-31T12:40:27;19.15;;;4.10;;
66327;SDS011;53133;52.862;6.602;2023-01-31T12:43:15;18.58;;;3.65;;
66327;SDS011;53133;52.862;6.602;2023-01-31T12:51:45;19.17;;;4.07;;
66327;SDS011;53133;52.862;6.602;2023-01-31T12:57:19;12.82;;;3.00;;
66327;SDS011;53133;52.862;6.602;2023-01-31T13:05:44;15.27;;;3.20;;
66327;SDS011;53133;52.862;6.602;2023-01-31T13:08:28;17.38;;;3.90;;
66327;SDS011;53133;52.862;6.602;2023-01-31T13:11:10;12.32;;;3.40;;
66327;SDS011;53133;52.862;6.602;2023-01-31T13:14:01;12.43;;;3.00;;
66327;SDS011;53133;52.862;6.602;2023-01-31T13:16:30;23.10;;;3.50;;
66327;SDS011;53133;52.862;6.602;2023-01-31T13:19:19;14.57;;;3.03;;
66327;SDS011;53133;52.862;6.602;2023-01-31T13:21:55;15.73;;;3.50;;
66327;SDS011;53133;52.862;6.602;2023-01-31T13:24:25;13.63;;;3.42;;
66327;SDS011;53133;52.862;6.602;2023-01-31T13:26:59;14.00;;;2.80;;
66327;SDS011;53133;52.862;6.602;2023-01-31T13:29:49;12.82;;;2.90;;
66327;SDS011;53133;52.862;6.602;2023-01-31T13:34:56;13.80;;;2.88;;
66327;SDS011;53133;52.862;6.602;2023-01-31T13:37:24;20.55;;;2.95;;
66327;SDS011;53133;52.862;6.602;2023-01-31T13:42:31;12.82;;;2.72;;
66327;SDS011;53133;52.862;6.602;2023-01-31T13:45:03;12.35;;;2.85;;
66327;SDS011;53133;52.862;6.602;2023-01-31T13:50:43;14.15;;;2.65;;
66327;SDS011;53133;52.862;6.602;2023-01-31T13:53:27;12.15;;;3.00;;
66327;SDS011;53133;52.862;6.602;2023-01-31T13:56:21;17.25;;;2.88;;
66327;SDS011;53133;52.862;6.602;2023-01-31T13:58:50;8.07;;;2.80;;
66327;SDS011;53133;52.862;6.602;2023-01-31T14:01:22;17.10;;;3.08;;
66327;SDS011;53133;52.862;6.602;2023-01-31T14:09:35;12.85;;;3.03;;
66327;SDS011;53133;52.862;6.602;2023-01-31T14:17:09;15.95;;;3.55;;
66327;SDS011;53133;52.862;6.602;2023-01-31T14:20:00;13.32;;;3.30;;
66327;SDS011;53133;52.862;6.602;2023-01-31T14:22:38;13.67;;;3.03;;
66327;SDS011;53133;52.862;6.602;2023-01-31T14:25:10;13.25;;;2.50;;
66327;SDS011;53133;52.862;6.602;2023-01-31T14:27:42;15.20;;;3.65;;
66327;SDS011;53133;52.862;6.602;2023-01-31T14:30:43;12.68;;;2.83;;
66327;SDS011;53133;52.862;6.602;2023-01-31T14:47:28;16.15;;;2.90;;
66327;SDS011;53133;52.862;6.602;2023-01-31T14:57:44;23.20;;;3.05;;
66327;SDS011;53133;52.862;6.602;2023-01-31T15:03:07;20.52;;;3.60;;
66327;SDS011;53133;52.862;6.602;2023-01-31T15:05:44;17.63;;;3.95;;
66327;SDS011;53133;52.862;6.602;2023-01-31T15:13:47;21.67;;;4.38;;
66327;SDS011;53133;52.862;6.602;2023-01-31T15:18:57;20.25;;;4.03;;
66327;SDS011;53133;52.862;6.602;2023-01-31T15:21:44;23.50;;;3.92;;
66327;SDS011;53133;52.862;6.602;2023-01-31T15:24:23;21.08;;;3.95;;
66327;SDS011;53133;52.862;6.602;2023-01-31T15:26:54;12.68;;;3.25;;
66327;SDS011;53133;52.862;6.602;2023-01-31T15:29:24;18.92;;;3.92;;
66327;SDS011;53133;52.862;6.602;2023-01-31T15:31:54;16.58;;;3.88;;
66327;SDS011;53133;52.862;6.602;2023-01-31T15:34:27;19.65;;;3.05;;
66327;SDS011;53133;52.862;6.602;2023-01-31T15:37:06;18.25;;;3.10;;
66327;SDS011;53133;52.862;6.602;2023-01-31T15:39:46;21.83;;;3.72;;
66327;SDS011;53133;52.862;6.602;2023-01-31T15:42:22;13.43;;;3.72;;
66327;SDS011;53133;52.862;6.602;2023-01-31T15:44:49;19.80;;;4.72;;
66327;SDS011;53133;52.862;6.602;2023-01-31T15:47:19;16.33;;;4.35;;
66327;SDS011;53133;52.862;6.602;2023-01-31T15:49:46;15.77;;;4.25;;
66327;SDS011;53133;52.862;6.602;2023-01-31T15:52:13;15.45;;;3.67;;
66327;SDS011;53133;52.862;6.602;2023-01-31T15:54:53;16.67;;;4.22;;
66327;SDS011;53133;52.862;6.602;2023-01-31T15:57:20;16.75;;;3.17;;
66327;SDS011;53133;52.862;6.602;2023-01-31T15:59:48;19.48;;;3.17;;
66327;SDS011;53133;52.862;6.602;2023-01-31T16:02:30;19.45;;;3.40;;
66327;SDS011;53133;52.862;6.602;2023-01-31T16:05:03;22.73;;;4.05;;
66327;SDS011;53133;52.862;6.602;2023-01-31T16:07:31;19.15;;;3.92;;
66327;SDS011;53133;52.862;6.602;2023-01-31T16:09:57;26.83;;;4.63;;
66327;SDS011;53133;52.862;6.602;2023-01-31T16:12:26;18.17;;;3.58;;
66327;SDS011;53133;52.862;6.602;2023-01-31T16:14:53;22.08;;;4.20;;
66327;SDS011;53133;52.862;6.602;2023-01-31T16:17:26;19.20;;;3.83;;
66327;SDS011;53133;52.862;6.602;2023-01-31T16:19:53;20.50;;;4.18;;
66327;SDS011;53133;52.862;6.602;2023-01-31T16:22:26;23.83;;;4.22;;
66327;SDS011;53133;52.862;6.602;2023-01-31T16:24:57;26.35;;;4.90;;
66327;SDS011;53133;52.862;6.602;2023-01-31T16:27:25;20.20;;;3.13;;
66327;SDS011;53133;52.862;6.602;2023-01-31T16:29:54;17.77;;;3.15;;
66327;SDS011;53133;52.862;6.602;2023-01-31T16:32:22;17.42;;;3.78;;
66327;SDS011;53133;52.862;6.602;2023-01-31T16:37:28;15.45;;;3.08;;
66327;SDS011;53133;52.862;6.602;2023-01-31T16:39:59;19.13;;;3.95;;
66327;SDS011;53133;52.862;6.602;2023-01-31T16:42:28;26.85;;;3.97;;
66327;SDS011;53133;52.862;6.602;2023-01-31T16:44:55;23.42;;;4.65;;
66327;SDS011;53133;52.862;6.602;2023-01-31T16:52:43;21.35;;;3.65;;
66327;SDS011;53133;52.862;6.602;2023-01-31T16:55:15;21.95;;;3.97;;
66327;SDS011;53133;52.862;6.602;2023-01-31T16:57:41;19.63;;;3.28;;
66327;SDS011;53133;52.862;6.602;2023-01-31T17:02:48;23.08;;;4.38;;
66327;SDS011;53133;52.862;6.602;2023-01-31T17:05:18;17.42;;;3.17;;
66327;SDS011;53133;52.862;6.602;2023-01-31T17:07:48;20.52;;;5.32;;
66327;SDS011;53133;52.862;6.602;2023-01-31T17:10:33;23.85;;;4.30;;
66327;SDS011;53133;52.862;6.602;2023-01-31T17:13:00;22.33;;;3.65;;
66327;SDS011;53133;52.862;6.602;2023-01-31T17:15:41;26.90;;;5.00;;
66327;SDS011;53133;52.862;6.602;2023-01-31T17:18:10;24.40;;;4.65;;
66327;SDS011;53133;52.862;6.602;2023-01-31T17:20:36;24.00;;;3.63;;
66327;SDS011;53133;52.862;6.602;2023-01-31T17:23:05;19.83;;;4.32;;
66327;SDS011;53133;52.862;6.602;2023-01-31T17:25:31;21.60;;;3.80;;
66327;SDS011;53133;52.862;6.602;2023-01-31T17:28:00;25.85;;;4.63;;
66327;SDS011;53133;52.862;6.602;2023-01-31T17:30:26;21.40;;;3.92;;